sensor_id;sensor_type;location;lat;lon;timestamp;pressure;altitude;pressure_sealevel;temperature;humidity
62712;BME280;48772;55.586;37.730;2023-06-14T00:02:10;99615.09;;;16.26;100.00
62712;BME280;48772;55.586;37.730;2023-06-14T00:04:36;99613.72;;;16.22;100.00
62712;BME280;48772;55.586;37.730;2023-06-14T00:07:05;99604.06;;;16.12;100.00
62712;BME280;48772;55.586;37.730;2023-06-14T00:09:34;99604.38;;;16.09;100.00
62712;BME280;48772;55.586;37.730;2023-06-14T00:12:01;99605.41;;;16.08;100.00
62712;BME280;48772;55.586;37.730;2023-06-14T00:14:28;99604.53;;;16.07;100.00
62712;BME280;48772;55.586;37.730;2023-06-14T00:16:54;99618.38;;;16.12;100.00
62712;BME280;48772;55.586;37.730;2023-06-14T00:19:25;99599.13;;;15.99;100.00
62712;BME280;48772;55.586;37.730;2023-06-14T00:21:52;99608.69;;;16.02;100.00
62712;BME280;48772;55.586;37.730;2023-06-14T00:24:19;99605.81;;;15.95;100.00
62712;BME280;48772;55.586;37.730;2023-06-14T00:26:46;99609.50;;;15.94;100.00
62712;BME280;48772;55.586;37.730;2023-06-14T00:29:13;99566.63;;;15.67;100.00
62712;BME280;48772;55.586;37.730;2023-06-14T00:31:39;99590.41;;;15.80;100.00
62712;BME280;48772;55.586;37.730;2023-06-14T00:34:05;99582.97;;;15.74;100.00
62712;BME280;48772;55.586;37.730;2023-06-14T00:36:32;99604.09;;;15.86;100.00
62712;BME280;48772;55.586;37.730;2023-06-14T00:38:58;99588.22;;;15.75;100.00
62712;BME280;48772;55.586;37.730;2023-06-14T00:41:24;99583.13;;;15.72;100.00
62712;BME280;48772;55.586;37.730;2023-06-14T00:43:50;99602.00;;;15.80;100.00
62712;BME280;48772;55.586;37.730;2023-06-14T00:46:17;99605.41;;;15.82;100.00
62712;BME280;48772;55.586;37.730;2023-06-14T00:48:44;99593.91;;;15.72;100.00
62712;BME280;48772;55.586;37.730;2023-06-14T00:51:11;99615.59;;;15.79;100.00
62712;BME280;48772;55.586;37.730;2023-06-14T00:53:38;99611.41;;;15.76;100.00
62712;BME280;48772;55.586;37.730;2023-06-14T00:56:05;99589.44;;;15.63;100.00
62712;BME280;48772;55.586;37.730;2023-06-14T00:58:32;99615.09;;;15.75;100.00
62712;BME280;48772;55.586;37.730;2023-06-14T01:00:58;99617.09;;;15.73;100.00
62712;BME280;48772;55.586;37.730;2023-06-14T01:03:23;99594.44;;;15.58;100.00
62712;BME280;48772;55.586;37.730;2023-06-14T01:05:56;99601.50;;;15.59;100.00
62712;BME280;48772;55.586;37.730;2023-06-14T01:11:16;99601.81;;;15.56;100.00
62712;BME280;48772;55.586;37.730;2023-06-14T01:13:46;99599.13;;;15.56;100.00
62712;BME280;48772;55.586;37.730;2023-06-14T01:16:14;99597.44;;;15.55;100.00
62712;BME280;48772;55.586;37.730;2023-06-14T01:18:40;99616.72;;;15.68;100.00
62712;BME280;48772;55.586;37.730;2023-06-14T01:21:20;99616.56;;;15.70;100.00
62712;BME280;48772;55.586;37.730;2023-06-14T01:23:48;99608.66;;;15.68;100.00
62712;BME280;48772;55.586;37.730;2023-06-14T01:26:19;99604.59;;;15.64;100.00
62712;BME280;48772;55.586;37.730;2023-06-14T01:28:46;99620.78;;;15.72;100.00
62712;BME280;48772;55.586;37.730;2023-06-14T01:31:17;99617.38;;;15.70;100.00
62712;BME280;48772;55.586;37.730;2023-06-14T01:33:45;99610.63;;;15.66;100.00
62712;BME280;48772;55.586;37.730;2023-06-14T01:36:12;99580.66;;;15.53;100.00
62712;BME280;48772;55.586;37.730;2023-06-14T01:38:39;99603.28;;;15.68;100.00
62712;BME280;48772;55.586;37.730;2023-06-14T01:41:05;99598.22;;;15.65;100.00
62712;BME280;48772;55.586;37.730;2023-06-14T01:43:32;99595.88;;;15.70;100.00
62712;BME280;48772;55.586;37.730;2023-06-14T01:46:00;99623.44;;;15.90;100.00
62712;BME280;48772;55.586;37.730;2023-06-14T01:48:27;99593.31;;;15.86;100.00
62712;BME280;48772;55.586;37.730;2023-06-14T01:50:53;99594.47;;;15.84;100.00
62712;BME280;48772;55.586;37.730;2023-06-14T01:53:20;99615.56;;;15.96;100.00
62712;BME280;48772;55.586;37.730;2023-06-14T01:55:46;99623.47;;;15.98;100.00
62712;BME280;48772;55.586;37.730;2023-06-14T01:58:14;99603.94;;;15.88;100.00
62712;BME280;48772;55.586;37.730;2023-06-14T02:00:42;99604.44;;;15.91;100.00
62712;BME280;48772;55.586;37.730;2023-06-14T02:03:09;99588.47;;;15.90;100.00
62712;BME280;48772;55.586;37.730;2023-06-14T02:05:35;99595.16;;;15.86;100.00
62712;BME280;48772;55.586;37.730;2023-06-14T02:08:00;99615.63;;;16.04;100.00
62712;BME280;48772;55.586;37.730;2023-06-14T02:10:26;99610.25;;;16.04;100.00
62712;BME280;48772;55.586;37.730;2023-06-14T02:12:54;99612.84;;;16.14;100.00
62712;BME280;48772;55.586;37.730;2023-06-14T02:15:20;99589.72;;;16.03;100.00
62712;BME280;48772;55.586;37.730;2023-06-14T02:17:47;99589.41;;;16.06;100.00
62712;BME280;48772;55.586;37.730;2023-06-14T02:20:16;99610.66;;;16.17;100.00
62712;BME280;48772;55.586;37.730;2023-06-14T02:22:43;99609.19;;;16.23;100.00
62712;BME280;48772;55.586;37.730;2023-06-14T02:25:09;99630.59;;;16.32;100.00
62712;BME280;48772;55.586;37.730;2023-06-14T02:27:35;99599.28;;;16.23;100.00
62712;BME280;48772;55.586;37.730;2023-06-14T02:30:03;99593.88;;;16.23;100.00
62712;BME280;48772;55.586;37.730;2023-06-14T02:32:33;99622.66;;;16.49;100.00
62712;BME280;48772;55.586;37.730;2023-06-14T02:35:02;99617.94;;;16.51;100.00
62712;BME280;48772;55.586;37.730;2023-06-14T02:37:31;99618.78;;;16.51;100.00
62712;BME280;48772;55.586;37.730;2023-06-14T02:39:58;99610.41;;;16.54;100.00
62712;BME280;48772;55.586;37.730;2023-06-14T02:42:25;99618.19;;;16.65;100.00
62712;BME280;48772;55.586;37.730;2023-06-14T02:44:50;99622.75;;;16.73;100.00
62712;BME280;48772;55.586;37.730;2023-06-14T02:47:18;99603.53;;;16.68;100.00
62712;BME280;48772;55.586;37.730;2023-06-14T02:49:45;99626.00;;;16.84;100.00
62712;BME280;48772;55.586;37.730;2023-06-14T02:52:15;99626.19;;;16.91;100.00
62712;BME280;48772;55.586;37.730;2023-06-14T02:54:41;99599.06;;;16.84;100.00
62712;BME280;48772;55.586;37.730;2023-06-14T02:57:08;99615.75;;;16.96;100.00
62712;BME280;48772;55.586;37.730;2023-06-14T02:59:34;99624.22;;;17.09;100.00
62712;BME280;48772;55.586;37.730;2023-06-14T03:02:02;99628.28;;;17.21;100.00
62712;BME280;48772;55.586;37.730;2023-06-14T03:04:30;99626.94;;;17.25;100.00
62712;BME280;48772;55.586;37.730;2023-06-14T03:07:01;99618.19;;;17.31;100.00
62712;BME280;48772;55.586;37.730;2023-06-14T03:09:28;99629.38;;;17.44;100.00
62712;BME280;48772;55.586;37.730;2023-06-14T03:11:55;99619.09;;;17.55;100.00
62712;BME280;48772;55.586;37.730;2023-06-14T03:14:21;99618.25;;;17.63;100.00
62712;BME280;48772;55.586;37.730;2023-06-14T03:16:48;99627.00;;;17.73;100.00
62712;BME280;48772;55.586;37.730;2023-06-14T03:19:16;99623.63;;;17.79;100.00
62712;BME280;48772;55.586;37.730;2023-06-14T03:21:42;99620.94;;;17.87;100.00
62712;BME280;48772;55.586;37.730;2023-06-14T03:24:10;99608.28;;;17.87;100.00
62712;BME280;48772;55.586;37.730;2023-06-14T03:26:37;99605.78;;;17.78;100.00
62712;BME280;48772;55.586;37.730;2023-06-14T03:29:03;99618.41;;;18.01;100.00
62712;BME280;48772;55.586;37.730;2023-06-14T03:31:29;99610.13;;;18.03;100.00
62712;BME280;48772;55.586;37.730;2023-06-14T03:34:01;99609.44;;;18.17;100.00
62712;BME280;48772;55.586;37.730;2023-06-14T03:36:27;99613.75;;;18.34;100.00
62712;BME280;48772;55.586;37.730;2023-06-14T03:38:54;99617.31;;;18.42;100.00
62712;BME280;48772;55.586;37.730;2023-06-14T03:41:21;99616.63;;;18.48;100.00
62712;BME280;48772;55.586;37.730;2023-06-14T03:43:48;99626.56;;;18.56;100.00
62712;BME280;48772;55.586;37.730;2023-06-14T03:46:14;99611.03;;;18.58;100.00
62712;BME280;48772;55.586;37.730;2023-06-14T03:48:41;99627.16;;;18.74;100.00
62712;BME280;48772;55.586;37.730;2023-06-14T03:51:07;99621.13;;;18.72;100.00
62712;BME280;48772;55.586;37.730;2023-06-14T03:53:33;99618.88;;;18.75;100.00
62712;BME280;48772;55.586;37.730;2023-06-14T03:56:02;99631.31;;;18.84;100.00
62712;BME280;48772;55.586;37.730;2023-06-14T03:58:37;99630.16;;;18.87;100.00
62712;BME280;48772;55.586;37.730;2023-06-14T04:01:40;99630.94;;;18.95;100.00
62712;BME280;48772;55.586;37.730;2023-06-14T04:04:14;99625.69;;;19.02;100.00
62712;BME280;48772;55.586;37.730;2023-06-14T04:06:58;99624.63;;;19.11;100.00
62712;BME280;48772;55.586;37.730;2023-06-14T04:09:26;99611.41;;;19.16;100.00
62712;BME280;48772;55.586;37.730;2023-06-14T04:11:52;99605.50;;;19.12;100.00
62712;BME280;48772;55.586;37.730;2023-06-14T04:14:21;99609.00;;;19.21;100.00
62712;BME280;48772;55.586;37.730;2023-06-14T04:16:48;99623.97;;;19.39;100.00
62712;BME280;48772;55.586;37.730;2023-06-14T04:19:16;99624.44;;;19.43;100.00
62712;BME280;48772;55.586;37.730;2023-06-14T04:21:42;99602.28;;;19.48;100.00
62712;BME280;48772;55.586;37.730;2023-06-14T04:24:08;99618.91;;;19.59;100.00
62712;BME280;48772;55.586;37.730;2023-06-14T04:26:43;99612.78;;;19.65;100.00
62712;BME280;48772;55.586;37.730;2023-06-14T04:29:15;99583.53;;;19.46;100.00
62712;BME280;48772;55.586;37.730;2023-06-14T04:31:45;99607.72;;;19.62;100.00
62712;BME280;48772;55.586;37.730;2023-06-14T04:34:12;99619.50;;;19.69;100.00
62712;BME280;48772;55.586;37.730;2023-06-14T04:36:45;99627.56;;;19.77;99.86
62712;BME280;48772;55.586;37.730;2023-06-14T04:39:20;99602.38;;;19.77;96.50
62712;BME280;48772;55.586;37.730;2023-06-14T04:41:47;99615.66;;;19.86;93.47
62712;BME280;48772;55.586;37.730;2023-06-14T04:44:13;99608.06;;;19.82;93.35
62712;BME280;48772;55.586;37.730;2023-06-14T04:46:45;99595.69;;;19.87;92.55
62712;BME280;48772;55.586;37.730;2023-06-14T04:49:18;99611.03;;;20.09;94.22
62712;BME280;48772;55.586;37.730;2023-06-14T04:51:45;99608.75;;;20.21;92.03
62712;BME280;48772;55.586;37.730;2023-06-14T04:54:12;99554.41;;;19.85;90.76
62712;BME280;48772;55.586;37.730;2023-06-14T04:56:40;99618.72;;;20.35;89.96
62712;BME280;48772;55.586;37.730;2023-06-14T04:59:08;99612.69;;;20.33;87.07
62712;BME280;48772;55.586;37.730;2023-06-14T05:01:35;99612.13;;;20.37;85.43
62712;BME280;48772;55.586;37.730;2023-06-14T05:04:01;99601.94;;;20.54;84.78
62712;BME280;48772;55.586;37.730;2023-06-14T05:06:29;99609.78;;;20.63;83.97
62712;BME280;48772;55.586;37.730;2023-06-14T05:08:56;99605.47;;;20.69;83.54
62712;BME280;48772;55.586;37.730;2023-06-14T05:11:23;99609.69;;;20.71;82.20
62712;BME280;48772;55.586;37.730;2023-06-14T05:13:52;99581.84;;;20.34;79.41
62712;BME280;48772;55.586;37.730;2023-06-14T05:16:18;99586.97;;;20.43;84.12
62712;BME280;48772;55.586;37.730;2023-06-14T05:18:45;99605.28;;;20.70;83.47
62712;BME280;48772;55.586;37.730;2023-06-14T05:21:13;99608.75;;;20.93;81.56
62712;BME280;48772;55.586;37.730;2023-06-14T05:23:41;99605.66;;;20.96;82.92
62712;BME280;48772;55.586;37.730;2023-06-14T05:26:07;99611.81;;;20.90;76.30
62712;BME280;48772;55.586;37.730;2023-06-14T05:28:33;99606.38;;;20.90;73.54
62712;BME280;48772;55.586;37.730;2023-06-14T05:30:59;99603.75;;;21.11;76.06
62712;BME280;48772;55.586;37.730;2023-06-14T05:33:25;99597.69;;;21.30;77.01
62712;BME280;48772;55.586;37.730;2023-06-14T05:38:35;99578.97;;;21.35;70.36
62712;BME280;48772;55.586;37.730;2023-06-14T05:41:01;99609.16;;;21.47;65.95
62712;BME280;48772;55.586;37.730;2023-06-14T05:43:27;99590.03;;;21.55;66.61
62712;BME280;48772;55.586;37.730;2023-06-14T05:45:53;99598.63;;;21.58;64.59
62712;BME280;48772;55.586;37.730;2023-06-14T05:48:19;99606.50;;;21.53;62.58
62712;BME280;48772;55.586;37.730;2023-06-14T05:55:23;99614.97;;;21.44;56.69
62712;BME280;48772;55.586;37.730;2023-06-14T05:57:58;99581.28;;;21.38;52.66
62712;BME280;48772;55.586;37.730;2023-06-14T06:16:04;99606.94;;;22.26;48.56
62712;BME280;48772;55.586;37.730;2023-06-14T06:22:12;99613.06;;;22.35;49.32
62712;BME280;48772;55.586;37.730;2023-06-14T06:28:25;99607.09;;;22.18;45.62
62712;BME280;48772;55.586;37.730;2023-06-14T06:31:27;99624.75;;;22.29;45.28
62712;BME280;48772;55.586;37.730;2023-06-14T06:34:28;99617.13;;;22.45;45.96
62712;BME280;48772;55.586;37.730;2023-06-14T06:38:07;99614.19;;;22.47;45.48
62712;BME280;48772;55.586;37.730;2023-06-14T06:49:17;99605.28;;;22.94;44.02
62712;BME280;48772;55.586;37.730;2023-06-14T06:53:21;99607.34;;;22.85;44.94
62712;BME280;48772;55.586;37.730;2023-06-14T06:57:16;99603.19;;;23.02;44.10
62712;BME280;48772;55.586;37.730;2023-06-14T06:59:53;99584.13;;;22.89;43.39
62712;BME280;48772;55.586;37.730;2023-06-14T07:02:49;99605.31;;;23.07;42.88
62712;BME280;48772;55.586;37.730;2023-06-14T07:17:49;99579.97;;;23.60;43.27
62712;BME280;48772;55.586;37.730;2023-06-14T07:22:11;99592.13;;;24.03;42.39
62712;BME280;48772;55.586;37.730;2023-06-14T07:26:37;99595.91;;;23.89;40.67
62712;BME280;48772;55.586;37.730;2023-06-14T07:30:17;99562.16;;;23.77;41.96
62712;BME280;48772;55.586;37.730;2023-06-14T07:36:58;99597.38;;;24.04;42.64
62712;BME280;48772;55.586;37.730;2023-06-14T07:41:22;99587.50;;;24.42;41.79
62712;BME280;48772;55.586;37.730;2023-06-14T07:49:17;99588.78;;;24.07;40.28
62712;BME280;48772;55.586;37.730;2023-06-14T07:51:44;99565.28;;;24.19;40.01
62712;BME280;48772;55.586;37.730;2023-06-14T07:54:25;99558.56;;;24.35;39.56
62712;BME280;48772;55.586;37.730;2023-06-14T07:58:00;99558.97;;;24.45;39.24
62712;BME280;48772;55.586;37.730;2023-06-14T08:00:57;99573.97;;;24.86;39.02
62712;BME280;48772;55.586;37.730;2023-06-14T08:08:11;99568.88;;;24.96;37.86
62712;BME280;48772;55.586;37.730;2023-06-14T08:15:17;99557.03;;;25.09;38.25
62712;BME280;48772;55.586;37.730;2023-06-14T08:29:54;99584.38;;;25.47;37.32
62712;BME280;48772;55.586;37.730;2023-06-14T08:38:02;99570.66;;;25.84;35.87
62712;BME280;48772;55.586;37.730;2023-06-14T08:42:27;99576.38;;;26.07;34.73
62712;BME280;48772;55.586;37.730;2023-06-14T08:45:46;99571.88;;;25.64;33.48
62712;BME280;48772;55.586;37.730;2023-06-14T08:48:39;99565.97;;;25.67;33.87
62712;BME280;48772;55.586;37.730;2023-06-14T08:52:48;99550.94;;;25.51;33.38
62712;BME280;48772;55.586;37.730;2023-06-14T08:57:00;99544.06;;;25.73;33.71
62712;BME280;48772;55.586;37.730;2023-06-14T09:00:42;99542.38;;;25.72;34.37
62712;BME280;48772;55.586;37.730;2023-06-14T09:05:13;99554.53;;;25.76;33.38
62712;BME280;48772;55.586;37.730;2023-06-14T09:08:50;99547.38;;;26.06;33.26
62712;BME280;48772;55.586;37.730;2023-06-14T09:11:26;99532.06;;;26.23;32.74
62712;BME280;48772;55.586;37.730;2023-06-14T09:14:38;99532.97;;;26.35;31.33
62712;BME280;48772;55.586;37.730;2023-06-14T09:17:56;99497.09;;;26.07;31.95
62712;BME280;48772;55.586;37.730;2023-06-14T09:20:47;99512.16;;;26.16;32.24
62712;BME280;48772;55.586;37.730;2023-06-14T09:23:58;99485.88;;;25.97;32.34
62712;BME280;48772;55.586;37.730;2023-06-14T09:27:07;99514.19;;;26.63;33.57
62712;BME280;48772;55.586;37.730;2023-06-14T09:30:29;99537.81;;;27.05;33.06
62712;BME280;48772;55.586;37.730;2023-06-14T09:39:25;99531.63;;;26.62;31.76
62712;BME280;48772;55.586;37.730;2023-06-14T09:43:16;99526.00;;;26.93;33.08
62712;BME280;48772;55.586;37.730;2023-06-14T09:47:09;99517.97;;;26.62;31.52
62712;BME280;48772;55.586;37.730;2023-06-14T09:50:00;99511.09;;;26.35;31.55
62712;BME280;48772;55.586;37.730;2023-06-14T09:52:32;99493.63;;;26.54;30.65
62712;BME280;48772;55.586;37.730;2023-06-14T09:55:12;99509.56;;;26.93;31.05
62712;BME280;48772;55.586;37.730;2023-06-14T10:01:20;99507.50;;;26.89;31.79
62712;BME280;48772;55.586;37.730;2023-06-14T10:08:37;99502.44;;;26.92;31.52
62712;BME280;48772;55.586;37.730;2023-06-14T10:11:07;99472.81;;;26.71;31.41
62712;BME280;48772;55.586;37.730;2023-06-14T10:13:41;99479.22;;;26.95;31.69
62712;BME280;48772;55.586;37.730;2023-06-14T10:29:09;99492.13;;;27.35;31.58
62712;BME280;48772;55.586;37.730;2023-06-14T10:31:46;99493.19;;;27.87;31.38
62712;BME280;48772;55.586;37.730;2023-06-14T10:34:28;99482.94;;;27.94;29.08
62712;BME280;48772;55.586;37.730;2023-06-14T10:37:05;99492.47;;;27.91;28.50
62712;BME280;48772;55.586;37.730;2023-06-14T10:39:40;99484.00;;;28.04;28.73
62712;BME280;48772;55.586;37.730;2023-06-14T10:42:09;99487.94;;;27.85;29.46
62712;BME280;48772;55.586;37.730;2023-06-14T10:44:39;99470.28;;;27.93;29.94
62712;BME280;48772;55.586;37.730;2023-06-14T10:50:11;99451.19;;;28.09;29.27
62712;BME280;48772;55.586;37.730;2023-06-14T10:52:43;99461.09;;;28.45;29.04
62712;BME280;48772;55.586;37.730;2023-06-14T10:55:11;99473.59;;;28.53;29.44
62712;BME280;48772;55.586;37.730;2023-06-14T10:57:42;99475.06;;;28.44;29.29
62712;BME280;48772;55.586;37.730;2023-06-14T11:00:14;99463.94;;;28.27;28.78
62712;BME280;48772;55.586;37.730;2023-06-14T11:05:51;99457.50;;;27.75;27.37
62712;BME280;48772;55.586;37.730;2023-06-14T11:10:59;99463.38;;;28.13;28.42
62712;BME280;48772;55.586;37.730;2023-06-14T11:13:28;99465.38;;;28.18;27.83
62712;BME280;48772;55.586;37.730;2023-06-14T11:15:54;99458.00;;;28.30;27.75
62712;BME280;48772;55.586;37.730;2023-06-14T11:18:22;99448.81;;;28.24;28.43
62712;BME280;48772;55.586;37.730;2023-06-14T11:20:53;99443.66;;;28.28;29.04
62712;BME280;48772;55.586;37.730;2023-06-14T11:23:19;99439.03;;;28.28;29.50
62712;BME280;48772;55.586;37.730;2023-06-14T11:25:51;99449.06;;;28.11;28.40
62712;BME280;48772;55.586;37.730;2023-06-14T11:28:17;99434.75;;;27.63;29.02
62712;BME280;48772;55.586;37.730;2023-06-14T11:30:47;99448.25;;;27.88;29.22
62712;BME280;48772;55.586;37.730;2023-06-14T11:33:18;99433.56;;;28.05;29.60
62712;BME280;48772;55.586;37.730;2023-06-14T11:35:44;99422.34;;;28.07;28.72
62712;BME280;48772;55.586;37.730;2023-06-14T11:38:14;99442.16;;;28.09;28.48
62712;BME280;48772;55.586;37.730;2023-06-14T11:40:40;99440.50;;;28.08;29.04
62712;BME280;48772;55.586;37.730;2023-06-14T11:43:06;99439.75;;;28.12;29.56
62712;BME280;48772;55.586;37.730;2023-06-14T11:45:33;99433.16;;;28.48;29.62
62712;BME280;48772;55.586;37.730;2023-06-14T11:47:59;99432.13;;;28.14;29.56
62712;BME280;48772;55.586;37.730;2023-06-14T11:50:26;99406.41;;;27.92;29.79
62712;BME280;48772;55.586;37.730;2023-06-14T11:52:59;99431.47;;;27.84;29.72
62712;BME280;48772;55.586;37.730;2023-06-14T11:55:39;99417.94;;;27.48;29.49
62712;BME280;48772;55.586;37.730;2023-06-14T11:58:06;99415.69;;;27.45;30.07
62712;BME280;48772;55.586;37.730;2023-06-14T12:00:35;99411.50;;;27.43;29.88
62712;BME280;48772;55.586;37.730;2023-06-14T12:03:01;99420.91;;;27.35;30.06
62712;BME280;48772;55.586;37.730;2023-06-14T12:05:28;99410.19;;;27.22;29.74
62712;BME280;48772;55.586;37.730;2023-06-14T12:07:59;99400.81;;;27.00;30.03
62712;BME280;48772;55.586;37.730;2023-06-14T12:10:28;99395.97;;;27.14;30.01
62712;BME280;48772;55.586;37.730;2023-06-14T12:12:58;99415.31;;;27.53;29.75
62712;BME280;48772;55.586;37.730;2023-06-14T12:15:28;99388.63;;;27.49;29.38
62712;BME280;48772;55.586;37.730;2023-06-14T12:17:55;99417.84;;;27.66;29.30
62712;BME280;48772;55.586;37.730;2023-06-14T12:20:20;99399.22;;;27.68;29.95
62712;BME280;48772;55.586;37.730;2023-06-14T12:22:50;99382.91;;;27.50;30.30
62712;BME280;48772;55.586;37.730;2023-06-14T12:25:31;99371.59;;;27.24;30.81
62712;BME280;48772;55.586;37.730;2023-06-14T12:28:06;99404.25;;;27.48;31.20
62712;BME280;48772;55.586;37.730;2023-06-14T12:30:33;99371.97;;;27.62;31.45
62712;BME280;48772;55.586;37.730;2023-06-14T12:33:01;99393.31;;;27.83;31.03
62712;BME280;48772;55.586;37.730;2023-06-14T12:35:27;99391.75;;;27.87;31.58
62712;BME280;48772;55.586;37.730;2023-06-14T12:37:53;99393.50;;;28.04;31.13
62712;BME280;48772;55.586;37.730;2023-06-14T12:40:19;99388.97;;;28.10;30.46
62712;BME280;48772;55.586;37.730;2023-06-14T12:42:45;99387.16;;;28.15;30.50
62712;BME280;48772;55.586;37.730;2023-06-14T12:45:14;99392.25;;;28.35;30.37
62712;BME280;48772;55.586;37.730;2023-06-14T12:47:40;99382.94;;;28.36;30.75
62712;BME280;48772;55.586;37.730;2023-06-14T12:50:07;99366.25;;;27.75;30.79
62712;BME280;48772;55.586;37.730;2023-06-14T12:52:33;99376.72;;;27.78;31.48
62712;BME280;48772;55.586;37.730;2023-06-14T12:55:05;99372.66;;;27.92;30.70
62712;BME280;48772;55.586;37.730;2023-06-14T12:57:32;99374.59;;;27.91;30.75
62712;BME280;48772;55.586;37.730;2023-06-14T13:00:16;99381.72;;;27.81;30.24
62712;BME280;48772;55.586;37.730;2023-06-14T13:02:43;99375.66;;;27.67;30.31
62712;BME280;48772;55.586;37.730;2023-06-14T13:05:09;99372.34;;;27.88;30.00
62712;BME280;48772;55.586;37.730;2023-06-14T13:07:35;99378.63;;;28.00;29.99
62712;BME280;48772;55.586;37.730;2023-06-14T13:10:07;99360.88;;;27.68;30.57
62712;BME280;48772;55.586;37.730;2023-06-14T13:12:34;99358.75;;;27.70;31.14
62712;BME280;48772;55.586;37.730;2023-06-14T13:15:00;99339.94;;;27.62;30.99
62712;BME280;48772;55.586;37.730;2023-06-14T13:17:26;99368.84;;;28.04;31.51
62712;BME280;48772;55.586;37.730;2023-06-14T13:22:37;99350.13;;;28.01;31.13
62712;BME280;48772;55.586;37.730;2023-06-14T13:25:03;99366.72;;;27.60;31.24
62712;BME280;48772;55.586;37.730;2023-06-14T13:30:14;99353.97;;;27.54;31.42
62712;BME280;48772;55.586;37.730;2023-06-14T13:32:58;99363.41;;;27.58;31.17
62712;BME280;48772;55.586;37.730;2023-06-14T13:35:24;99359.31;;;27.38;31.39
62712;BME280;48772;55.586;37.730;2023-06-14T13:37:51;99355.75;;;27.26;31.38
62712;BME280;48772;55.586;37.730;2023-06-14T13:40:18;99351.13;;;27.26;31.94
62712;BME280;48772;55.586;37.730;2023-06-14T13:42:46;99342.38;;;27.18;32.15
62712;BME280;48772;55.586;37.730;2023-06-14T13:45:12;99347.09;;;26.99;31.65
62712;BME280;48772;55.586;37.730;2023-06-14T13:47:39;99343.44;;;27.05;31.11
62712;BME280;48772;55.586;37.730;2023-06-14T13:50:05;99337.38;;;27.15;31.53
62712;BME280;48772;55.586;37.730;2023-06-14T13:52:32;99351.69;;;27.17;31.88
62712;BME280;48772;55.586;37.730;2023-06-14T13:54:57;99341.22;;;27.37;31.32
62712;BME280;48772;55.586;37.730;2023-06-14T14:00:08;99342.78;;;27.44;30.91
62712;BME280;48772;55.586;37.730;2023-06-14T14:02:41;99347.19;;;27.22;31.08
62712;BME280;48772;55.586;37.730;2023-06-14T14:05:09;99352.03;;;27.09;31.23
62712;BME280;48772;55.586;37.730;2023-06-14T14:07:35;99346.28;;;27.10;31.23
62712;BME280;48772;55.586;37.730;2023-06-14T14:10:02;99335.78;;;27.25;31.30
62712;BME280;48772;55.586;37.730;2023-06-14T14:12:46;99317.72;;;27.06;31.49
62712;BME280;48772;55.586;37.730;2023-06-14T14:15:12;99347.50;;;27.14;31.18
62712;BME280;48772;55.586;37.730;2023-06-14T14:17:40;99345.34;;;27.05;31.07
62712;BME280;48772;55.586;37.730;2023-06-14T14:20:10;99335.69;;;26.91;30.99
62712;BME280;48772;55.586;37.730;2023-06-14T14:22:38;99329.72;;;26.82;31.54
62712;BME280;48772;55.586;37.730;2023-06-14T14:25:04;99339.59;;;26.83;31.76
62712;BME280;48772;55.586;37.730;2023-06-14T14:27:30;99322.56;;;26.70;32.22
62712;BME280;48772;55.586;37.730;2023-06-14T14:29:56;99339.56;;;26.72;32.01
62712;BME280;48772;55.586;37.730;2023-06-14T14:32:21;99324.84;;;26.55;31.98
62712;BME280;48772;55.586;37.730;2023-06-14T14:34:47;99334.41;;;26.64;31.97
62712;BME280;48772;55.586;37.730;2023-06-14T14:37:32;99332.91;;;26.79;31.67
62712;BME280;48772;55.586;37.730;2023-06-14T14:39:58;99325.97;;;26.65;32.21
62712;BME280;48772;55.586;37.730;2023-06-14T14:42:24;99332.81;;;26.74;32.60
62712;BME280;48772;55.586;37.730;2023-06-14T14:44:52;99339.13;;;26.86;32.56
62712;BME280;48772;55.586;37.730;2023-06-14T14:47:17;99338.50;;;26.84;32.14
62712;BME280;48772;55.586;37.730;2023-06-14T14:49:43;99318.38;;;26.67;32.39
62712;BME280;48772;55.586;37.730;2023-06-14T14:52:30;99322.19;;;26.48;31.94
62712;BME280;48772;55.586;37.730;2023-06-14T14:57:39;99318.69;;;26.59;32.13
62712;BME280;48772;55.586;37.730;2023-06-14T15:00:06;99340.53;;;26.77;32.13
62712;BME280;48772;55.586;37.730;2023-06-14T15:02:33;99332.56;;;26.87;32.31
62712;BME280;48772;55.586;37.730;2023-06-14T15:04:58;99334.81;;;26.67;32.90
62712;BME280;48772;55.586;37.730;2023-06-14T15:07:27;99330.78;;;26.52;32.65
62712;BME280;48772;55.586;37.730;2023-06-14T15:09:54;99279.03;;;26.09;32.97
62712;BME280;48772;55.586;37.730;2023-06-14T15:12:20;99331.75;;;26.57;33.23
62712;BME280;48772;55.586;37.730;2023-06-14T15:14:52;99336.16;;;26.58;32.67
62712;BME280;48772;55.586;37.730;2023-06-14T15:18:14;99340.75;;;26.46;32.65
62712;BME280;48772;55.586;37.730;2023-06-14T15:20:40;99337.06;;;26.41;32.66
62712;BME280;48772;55.586;37.730;2023-06-14T15:23:07;99335.94;;;26.30;32.80
62712;BME280;48772;55.586;37.730;2023-06-14T15:28:35;99339.16;;;26.39;33.27
62712;BME280;48772;55.586;37.730;2023-06-14T15:31:01;99342.78;;;26.21;33.29
62712;BME280;48772;55.586;37.730;2023-06-14T15:33:27;99335.69;;;26.32;33.58
62712;BME280;48772;55.586;37.730;2023-06-14T15:35:53;99339.41;;;26.37;33.66
62712;BME280;48772;55.586;37.730;2023-06-14T15:38:20;99342.28;;;26.42;33.29
62712;BME280;48772;55.586;37.730;2023-06-14T15:40:47;99326.50;;;25.97;33.70
62712;BME280;48772;55.586;37.730;2023-06-14T15:43:13;99338.84;;;26.17;33.30
62712;BME280;48772;55.586;37.730;2023-06-14T15:45:39;99325.50;;;26.09;33.48
62712;BME280;48772;55.586;37.730;2023-06-14T15:48:05;99340.81;;;26.28;33.44